sensor_id;sensor_type;location;lat;lon;timestamp;P1;durP1;ratioP1;P2;durP2;ratioP2
59054;SDS011;44845;51.444;7.460;2023-04-07T00:01:41;4.82;;;3.47;;
59054;SDS011;44845;51.444;7.460;2023-04-07T00:04:06;4.65;;;3.55;;
59054;SDS011;44845;51.444;7.460;2023-04-07T00:06:31;4.05;;;3.35;;
59054;SDS011;44845;51.444;7.460;2023-04-07T00:08:57;3.75;;;3.38;;
59054;SDS011;44845;51.444;7.460;2023-04-07T00:11:22;3.90;;;3.50;;
59054;SDS011;44845;51.444;7.460;2023-04-07T00:13:47;4.00;;;3.58;;
59054;SDS011;44845;51.444;7.460;2023-04-07T00:16:13;3.95;;;3.53;;
59054;SDS011;44845;51.444;7.460;2023-04-07T00:18:38;4.85;;;4.05;;
59054;SDS011;44845;51.444;7.460;2023-04-07T00:21:04;3.95;;;3.55;;
59054;SDS011;44845;51.444;7.460;2023-04-07T00:23:29;4.28;;;3.70;;
59054;SDS011;44845;51.444;7.460;2023-04-07T00:25:55;4.40;;;3.95;;
59054;SDS011;44845;51.444;7.460;2023-04-07T00:28:20;4.68;;;3.67;;
59054;SDS011;44845;51.444;7.460;2023-04-07T00:30:46;4.20;;;3.58;;
59054;SDS011;44845;51.444;7.460;2023-04-07T00:33:11;3.88;;;3.47;;
59054;SDS011;44845;51.444;7.460;2023-04-07T00:35:36;4.95;;;4.05;;
59054;SDS011;44845;51.444;7.460;2023-04-07T00:38:02;5.22;;;4.53;;
59054;SDS011;44845;51.444;7.460;2023-04-07T00:40:27;5.75;;;4.38;;
59054;SDS011;44845;51.444;7.460;2023-04-07T00:42:53;4.32;;;3.92;;
59054;SDS011;44845;51.444;7.460;2023-04-07T00:45:18;4.35;;;3.95;;
59054;SDS011;44845;51.444;7.460;2023-04-07T00:47:43;4.43;;;3.70;;
59054;SDS011;44845;51.444;7.460;2023-04-07T00:50:09;4.85;;;4.25;;
59054;SDS011;44845;51.444;7.460;2023-04-07T00:52:35;4.28;;;3.75;;
59054;SDS011;44845;51.444;7.460;2023-04-07T00:55:00;5.32;;;3.95;;
59054;SDS011;44845;51.444;7.460;2023-04-07T00:57:26;5.68;;;3.72;;
59054;SDS011;44845;51.444;7.460;2023-04-07T00:59:51;4.22;;;3.83;;
59054;SDS011;44845;51.444;7.460;2023-04-07T01:02:20;4.22;;;3.83;;
59054;SDS011;44845;51.444;7.460;2023-04-07T01:05:10;6.10;;;4.25;;
59054;SDS011;44845;51.444;7.460;2023-04-07T01:08:14;5.00;;;4.35;;
59054;SDS011;44845;51.444;7.460;2023-04-07T01:10:59;4.28;;;3.78;;
59054;SDS011;44845;51.444;7.460;2023-04-07T01:13:37;4.47;;;4.07;;
59054;SDS011;44845;51.444;7.460;2023-04-07T01:16:19;4.78;;;4.25;;
59054;SDS011;44845;51.444;7.460;2023-04-07T01:18:50;5.88;;;4.78;;
59054;SDS011;44845;51.444;7.460;2023-04-07T01:21:18;6.30;;;4.40;;
59054;SDS011;44845;51.444;7.460;2023-04-07T01:26:28;6.17;;;4.90;;
59054;SDS011;44845;51.444;7.460;2023-04-07T01:31:53;8.10;;;4.85;;
59054;SDS011;44845;51.444;7.460;2023-04-07T01:34:20;5.45;;;4.88;;
59054;SDS011;44845;51.444;7.460;2023-04-07T01:36:47;5.25;;;4.68;;
59054;SDS011;44845;51.444;7.460;2023-04-07T01:39:14;6.95;;;4.95;;
59054;SDS011;44845;51.444;7.460;2023-04-07T01:41:41;5.95;;;4.88;;
59054;SDS011;44845;51.444;7.460;2023-04-07T01:44:08;5.57;;;5.07;;
59054;SDS011;44845;51.444;7.460;2023-04-07T01:46:35;6.13;;;4.60;;
59054;SDS011;44845;51.444;7.460;2023-04-07T01:49:00;6.68;;;5.05;;
59054;SDS011;44845;51.444;7.460;2023-04-07T01:51:27;6.50;;;5.68;;
59054;SDS011;44845;51.444;7.460;2023-04-07T01:53:55;7.68;;;5.60;;
59054;SDS011;44845;51.444;7.460;2023-04-07T01:56:21;7.03;;;5.78;;
59054;SDS011;44845;51.444;7.460;2023-04-07T01:58:47;6.32;;;5.35;;
59054;SDS011;44845;51.444;7.460;2023-04-07T02:01:13;6.50;;;5.63;;
59054;SDS011;44845;51.444;7.460;2023-04-07T02:06:43;6.18;;;5.22;;
59054;SDS011;44845;51.444;7.460;2023-04-07T02:09:14;6.32;;;5.40;;
59054;SDS011;44845;51.444;7.460;2023-04-07T02:11:40;7.88;;;6.35;;
59054;SDS011;44845;51.444;7.460;2023-04-07T02:14:07;6.43;;;5.45;;
59054;SDS011;44845;51.444;7.460;2023-04-07T02:16:34;6.45;;;5.68;;
59054;SDS011;44845;51.444;7.460;2023-04-07T02:19:00;6.63;;;5.40;;
59054;SDS011;44845;51.444;7.460;2023-04-07T02:21:27;7.63;;;6.15;;
59054;SDS011;44845;51.444;7.460;2023-04-07T02:23:54;7.00;;;5.80;;
59054;SDS011;44845;51.444;7.460;2023-04-07T02:26:20;7.88;;;5.80;;
59054;SDS011;44845;51.444;7.460;2023-04-07T02:28:45;5.60;;;5.10;;
59054;SDS011;44845;51.444;7.460;2023-04-07T02:31:11;6.50;;;5.75;;
59054;SDS011;44845;51.444;7.460;2023-04-07T02:33:37;6.18;;;5.57;;
59054;SDS011;44845;51.444;7.460;2023-04-07T02:36:03;7.03;;;5.90;;
59054;SDS011;44845;51.444;7.460;2023-04-07T02:38:28;6.05;;;5.43;;
59054;SDS011;44845;51.444;7.460;2023-04-07T02:40:53;6.38;;;5.78;;
59054;SDS011;44845;51.444;7.460;2023-04-07T02:43:19;7.38;;;6.05;;
59054;SDS011;44845;51.444;7.460;2023-04-07T02:45:45;7.38;;;5.72;;
59054;SDS011;44845;51.444;7.460;2023-04-07T02:48:10;7.13;;;5.63;;
59054;SDS011;44845;51.444;7.460;2023-04-07T02:50:36;8.77;;;5.65;;
59054;SDS011;44845;51.444;7.460;2023-04-07T02:53:01;6.90;;;5.97;;
59054;SDS011;44845;51.444;7.460;2023-04-07T02:55:26;7.28;;;5.65;;
59054;SDS011;44845;51.444;7.460;2023-04-07T02:57:52;7.65;;;5.43;;
59054;SDS011;44845;51.444;7.460;2023-04-07T03:00:17;6.97;;;5.55;;
59054;SDS011;44845;51.444;7.460;2023-04-07T03:02:43;6.05;;;5.32;;
59054;SDS011;44845;51.444;7.460;2023-04-07T03:05:08;6.50;;;5.50;;
59054;SDS011;44845;51.444;7.460;2023-04-07T03:07:33;6.90;;;5.93;;
59054;SDS011;44845;51.444;7.460;2023-04-07T03:09:59;6.85;;;6.15;;
59054;SDS011;44845;51.444;7.460;2023-04-07T03:12:24;7.03;;;6.13;;
59054;SDS011;44845;51.444;7.460;2023-04-07T03:14:49;6.60;;;5.55;;
59054;SDS011;44845;51.444;7.460;2023-04-07T03:17:15;6.28;;;5.38;;
59054;SDS011;44845;51.444;7.460;2023-04-07T03:19:40;6.53;;;5.68;;
59054;SDS011;44845;51.444;7.460;2023-04-07T03:22:05;7.25;;;5.53;;
59054;SDS011;44845;51.444;7.460;2023-04-07T03:24:31;8.90;;;5.70;;
59054;SDS011;44845;51.444;7.460;2023-04-07T03:26:56;6.20;;;5.53;;
59054;SDS011;44845;51.444;7.460;2023-04-07T03:29:22;7.10;;;5.97;;
59054;SDS011;44845;51.444;7.460;2023-04-07T03:31:47;6.35;;;5.43;;
59054;SDS011;44845;51.444;7.460;2023-04-07T03:34:13;5.97;;;5.38;;
59054;SDS011;44845;51.444;7.460;2023-04-07T03:36:38;6.90;;;5.53;;
59054;SDS011;44845;51.444;7.460;2023-04-07T03:39:03;7.15;;;5.45;;
59054;SDS011;44845;51.444;7.460;2023-04-07T03:41:29;6.80;;;5.97;;
59054;SDS011;44845;51.444;7.460;2023-04-07T03:43:54;8.23;;;5.95;;
59054;SDS011;44845;51.444;7.460;2023-04-07T03:46:20;6.10;;;5.50;;
59054;SDS011;44845;51.444;7.460;2023-04-07T03:48:45;7.25;;;5.53;;
59054;SDS011;44845;51.444;7.460;2023-04-07T03:51:11;6.50;;;5.38;;
59054;SDS011;44845;51.444;7.460;2023-04-07T03:53:37;8.73;;;5.68;;
59054;SDS011;44845;51.444;7.460;2023-04-07T03:56:02;7.07;;;5.40;;
59054;SDS011;44845;51.444;7.460;2023-04-07T03:58:28;6.75;;;5.78;;
59054;SDS011;44845;51.444;7.460;2023-04-07T04:00:53;7.68;;;5.00;;
59054;SDS011;44845;51.444;7.460;2023-04-07T04:03:18;7.07;;;4.97;;
59054;SDS011;44845;51.444;7.460;2023-04-07T04:05:44;6.00;;;5.07;;
59054;SDS011;44845;51.444;7.460;2023-04-07T04:08:09;5.97;;;5.30;;
59054;SDS011;44845;51.444;7.460;2023-04-07T04:10:35;6.20;;;5.60;;
59054;SDS011;44845;51.444;7.460;2023-04-07T04:13:00;5.57;;;5.03;;
59054;SDS011;44845;51.444;7.460;2023-04-07T04:15:27;6.05;;;5.43;;
59054;SDS011;44845;51.444;7.460;2023-04-07T04:17:53;7.32;;;5.60;;
59054;SDS011;44845;51.444;7.460;2023-04-07T04:20:18;6.00;;;5.22;;
59054;SDS011;44845;51.444;7.460;2023-04-07T04:22:46;5.80;;;5.10;;
59054;SDS011;44845;51.444;7.460;2023-04-07T04:25:11;9.50;;;5.30;;
59054;SDS011;44845;51.444;7.460;2023-04-07T04:27:36;5.72;;;5.13;;
59054;SDS011;44845;51.444;7.460;2023-04-07T04:30:02;6.55;;;4.90;;
59054;SDS011;44845;51.444;7.460;2023-04-07T04:32:28;7.22;;;4.70;;
59054;SDS011;44845;51.444;7.460;2023-04-07T04:34:53;6.05;;;5.40;;
59054;SDS011;44845;51.444;7.460;2023-04-07T04:37:19;6.43;;;5.43;;
59054;SDS011;44845;51.444;7.460;2023-04-07T04:39:44;6.25;;;5.10;;
59054;SDS011;44845;51.444;7.460;2023-04-07T04:42:10;5.53;;;4.97;;
59054;SDS011;44845;51.444;7.460;2023-04-07T04:44:35;8.50;;;5.22;;
59054;SDS011;44845;51.444;7.460;2023-04-07T04:47:01;9.07;;;5.70;;
59054;SDS011;44845;51.444;7.460;2023-04-07T04:49:26;5.65;;;5.05;;
59054;SDS011;44845;51.444;7.460;2023-04-07T04:51:52;6.03;;;4.72;;
59054;SDS011;44845;51.444;7.460;2023-04-07T04:54:17;6.90;;;5.57;;
59054;SDS011;44845;51.444;7.460;2023-04-07T04:56:43;5.70;;;5.13;;
59054;SDS011;44845;51.444;7.460;2023-04-07T04:59:09;7.72;;;5.85;;
59054;SDS011;44845;51.444;7.460;2023-04-07T05:01:34;5.55;;;5.05;;
59054;SDS011;44845;51.444;7.460;2023-04-07T05:04:00;6.10;;;5.28;;
59054;SDS011;44845;51.444;7.460;2023-04-07T05:06:25;6.28;;;5.65;;
59054;SDS011;44845;51.444;7.460;2023-04-07T05:08:51;8.38;;;5.97;;
59054;SDS011;44845;51.444;7.460;2023-04-07T05:11:17;7.88;;;6.68;;
59054;SDS011;44845;51.444;7.460;2023-04-07T05:13:43;7.10;;;5.78;;
59054;SDS011;44845;51.444;7.460;2023-04-07T05:16:08;8.07;;;7.25;;
59054;SDS011;44845;51.444;7.460;2023-04-07T05:18:33;10.48;;;8.32;;
59054;SDS011;44845;51.444;7.460;2023-04-07T05:20:59;10.35;;;8.10;;
59054;SDS011;44845;51.444;7.460;2023-04-07T05:23:25;10.27;;;8.75;;
59054;SDS011;44845;51.444;7.460;2023-04-07T05:25:51;11.50;;;8.20;;
59054;SDS011;44845;51.444;7.460;2023-04-07T05:28:16;10.98;;;9.15;;
59054;SDS011;44845;51.444;7.460;2023-04-07T05:30:42;11.55;;;9.38;;
59054;SDS011;44845;51.444;7.460;2023-04-07T05:33:07;12.27;;;9.63;;
59054;SDS011;44845;51.444;7.460;2023-04-07T05:35:32;12.32;;;9.52;;
59054;SDS011;44845;51.444;7.460;2023-04-07T05:37:58;13.05;;;9.60;;
59054;SDS011;44845;51.444;7.460;2023-04-07T05:40:23;13.55;;;9.88;;
59054;SDS011;44845;51.444;7.460;2023-04-07T05:42:49;10.98;;;8.93;;
59054;SDS011;44845;51.444;7.460;2023-04-07T05:45:14;12.10;;;9.60;;
59054;SDS011;44845;51.444;7.460;2023-04-07T05:47:40;12.05;;;9.85;;
59054;SDS011;44845;51.444;7.460;2023-04-07T05:50:06;12.20;;;9.73;;
59054;SDS011;44845;51.444;7.460;2023-04-07T05:52:31;11.77;;;8.85;;
59054;SDS011;44845;51.444;7.460;2023-04-07T05:54:56;13.27;;;10.18;;
59054;SDS011;44845;51.444;7.460;2023-04-07T05:57:22;11.85;;;9.43;;
59054;SDS011;44845;51.444;7.460;2023-04-07T05:59:47;12.85;;;10.18;;
59054;SDS011;44845;51.444;7.460;2023-04-07T06:02:13;15.15;;;10.52;;
59054;SDS011;44845;51.444;7.460;2023-04-07T06:04:38;13.05;;;9.50;;
59054;SDS011;44845;51.444;7.460;2023-04-07T06:07:03;13.57;;;9.90;;
59054;SDS011;44845;51.444;7.460;2023-04-07T06:09:29;14.52;;;9.82;;
59054;SDS011;44845;51.444;7.460;2023-04-07T06:11:54;12.02;;;9.48;;
59054;SDS011;44845;51.444;7.460;2023-04-07T06:14:20;12.75;;;8.95;;
59054;SDS011;44845;51.444;7.460;2023-04-07T06:16:46;14.75;;;10.00;;
59054;SDS011;44845;51.444;7.460;2023-04-07T06:19:11;15.05;;;9.75;;
59054;SDS011;44845;51.444;7.460;2023-04-07T06:21:37;14.52;;;10.40;;
59054;SDS011;44845;51.444;7.460;2023-04-07T06:24:03;13.30;;;8.98;;
59054;SDS011;44845;51.444;7.460;2023-04-07T06:26:29;13.32;;;9.48;;
59054;SDS011;44845;51.444;7.460;2023-04-07T06:28:55;13.05;;;9.10;;
59054;SDS011;44845;51.444;7.460;2023-04-07T06:31:22;11.35;;;9.00;;
59054;SDS011;44845;51.444;7.460;2023-04-07T06:33:47;12.60;;;8.93;;
59054;SDS011;44845;51.444;7.460;2023-04-07T06:36:12;13.30;;;9.10;;
59054;SDS011;44845;51.444;7.460;2023-04-07T06:38:38;13.38;;;8.85;;
59054;SDS011;44845;51.444;7.460;2023-04-07T06:41:03;11.48;;;8.52;;
59054;SDS011;44845;51.444;7.460;2023-04-07T06:43:29;12.90;;;9.00;;
59054;SDS011;44845;51.444;7.460;2023-04-07T06:45:55;10.90;;;8.70;;
59054;SDS011;44845;51.444;7.460;2023-04-07T06:48:20;11.20;;;8.57;;
59054;SDS011;44845;51.444;7.460;2023-04-07T06:50:49;11.40;;;8.65;;
59054;SDS011;44845;51.444;7.460;2023-04-07T06:53:14;10.43;;;7.97;;
59054;SDS011;44845;51.444;7.460;2023-04-07T06:55:40;11.35;;;8.52;;
59054;SDS011;44845;51.444;7.460;2023-04-07T06:58:05;12.55;;;8.55;;
59054;SDS011;44845;51.444;7.460;2023-04-07T07:00:31;10.23;;;7.90;;
59054;SDS011;44845;51.444;7.460;2023-04-07T07:02:56;9.55;;;7.53;;
59054;SDS011;44845;51.444;7.460;2023-04-07T07:05:22;10.18;;;7.78;;
59054;SDS011;44845;51.444;7.460;2023-04-07T07:07:48;9.95;;;7.35;;
59054;SDS011;44845;51.444;7.460;2023-04-07T07:10:13;10.05;;;8.02;;
59054;SDS011;44845;51.444;7.460;2023-04-07T07:12:39;9.65;;;7.60;;
59054;SDS011;44845;51.444;7.460;2023-04-07T07:15:05;11.27;;;7.50;;
59054;SDS011;44845;51.444;7.460;2023-04-07T07:17:31;8.20;;;7.00;;
59054;SDS011;44845;51.444;7.460;2023-04-07T07:19:56;9.73;;;7.28;;
59054;SDS011;44845;51.444;7.460;2023-04-07T07:22:21;10.20;;;7.70;;
59054;SDS011;44845;51.444;7.460;2023-04-07T07:24:47;8.05;;;6.55;;
59054;SDS011;44845;51.444;7.460;2023-04-07T07:27:12;8.35;;;7.00;;
59054;SDS011;44845;51.444;7.460;2023-04-07T07:29:37;9.90;;;7.50;;
59054;SDS011;44845;51.444;7.460;2023-04-07T07:32:03;9.82;;;7.35;;
59054;SDS011;44845;51.444;7.460;2023-04-07T07:34:28;9.63;;;7.28;;
59054;SDS011;44845;51.444;7.460;2023-04-07T07:36:54;9.55;;;7.00;;
59054;SDS011;44845;51.444;7.460;2023-04-07T07:39:19;9.32;;;7.20;;
59054;SDS011;44845;51.444;7.460;2023-04-07T07:41:45;9.00;;;6.97;;
59054;SDS011;44845;51.444;7.460;2023-04-07T07:44:10;7.80;;;6.38;;
59054;SDS011;44845;51.444;7.460;2023-04-07T07:46:36;9.38;;;6.57;;
59054;SDS011;44845;51.444;7.460;2023-04-07T07:49:01;9.02;;;7.05;;
59054;SDS011;44845;51.444;7.460;2023-04-07T07:51:26;8.63;;;6.95;;
59054;SDS011;44845;51.444;7.460;2023-04-07T07:53:52;8.98;;;7.57;;
59054;SDS011;44845;51.444;7.460;2023-04-07T07:56:17;9.55;;;7.00;;
59054;SDS011;44845;51.444;7.460;2023-04-07T07:58:43;8.48;;;6.80;;
59054;SDS011;44845;51.444;7.460;2023-04-07T08:01:08;8.38;;;6.53;;
59054;SDS011;44845;51.444;7.460;2023-04-07T08:03:34;9.07;;;7.13;;
59054;SDS011;44845;51.444;7.460;2023-04-07T08:05:59;7.75;;;6.20;;
59054;SDS011;44845;51.444;7.460;2023-04-07T08:08:25;8.07;;;6.68;;
59054;SDS011;44845;51.444;7.460;2023-04-07T08:10:50;9.52;;;7.70;;
59054;SDS011;44845;51.444;7.460;2023-04-07T08:13:15;9.55;;;7.78;;
59054;SDS011;44845;51.444;7.460;2023-04-07T08:15:41;9.52;;;7.13;;
59054;SDS011;44845;51.444;7.460;2023-04-07T08:18:07;8.13;;;6.85;;
59054;SDS011;44845;51.444;7.460;2023-04-07T08:20:32;8.02;;;6.95;;
59054;SDS011;44845;51.444;7.460;2023-04-07T08:22:58;8.38;;;6.55;;
59054;SDS011;44845;51.444;7.460;2023-04-07T08:25:25;8.70;;;6.65;;
59054;SDS011;44845;51.444;7.460;2023-04-07T08:27:51;9.05;;;7.38;;
59054;SDS011;44845;51.444;7.460;2023-04-07T08:30:16;8.98;;;6.72;;
59054;SDS011;44845;51.444;7.460;2023-04-07T08:32:43;8.38;;;6.57;;
59054;SDS011;44845;51.444;7.460;2023-04-07T08:35:08;8.48;;;6.90;;
59054;SDS011;44845;51.444;7.460;2023-04-07T08:37:35;8.73;;;7.15;;
59054;SDS011;44845;51.444;7.460;2023-04-07T08:40:01;8.32;;;6.57;;
59054;SDS011;44845;51.444;7.460;2023-04-07T08:42:29;7.53;;;6.15;;
59054;SDS011;44845;51.444;7.460;2023-04-07T08:44:56;8.20;;;6.78;;
59054;SDS011;44845;51.444;7.460;2023-04-07T08:47:25;9.20;;;6.75;;
59054;SDS011;44845;51.444;7.460;2023-04-07T08:49:53;9.15;;;7.20;;
59054;SDS011;44845;51.444;7.460;2023-04-07T08:52:23;9.43;;;7.68;;
59054;SDS011;44845;51.444;7.460;2023-04-07T08:55:13;7.72;;;6.65;;
59054;SDS011;44845;51.444;7.460;2023-04-07T08:57:38;10.43;;;7.72;;
59054;SDS011;44845;51.444;7.460;2023-04-07T09:00:05;9.05;;;7.63;;
59054;SDS011;44845;51.444;7.460;2023-04-07T09:02:32;9.00;;;7.35;;
59054;SDS011;44845;51.444;7.460;2023-04-07T09:04:58;9.88;;;7.90;;
59054;SDS011;44845;51.444;7.460;2023-04-07T09:07:24;10.52;;;8.10;;
59054;SDS011;44845;51.444;7.460;2023-04-07T09:09:49;9.57;;;7.88;;
59054;SDS011;44845;51.444;7.460;2023-04-07T09:12:15;9.60;;;7.80;;
59054;SDS011;44845;51.444;7.460;2023-04-07T09:14:40;11.38;;;8.32;;
59054;SDS011;44845;51.444;7.460;2023-04-07T09:17:06;10.70;;;8.27;;
59054;SDS011;44845;51.444;7.460;2023-04-07T09:19:31;9.25;;;7.47;;
59054;SDS011;44845;51.444;7.460;2023-04-07T09:21:57;11.07;;;7.75;;
59054;SDS011;44845;51.444;7.460;2023-04-07T09:24:26;11.23;;;7.82;;
59054;SDS011;44845;51.444;7.460;2023-04-07T09:29:39;10.93;;;7.90;;
59054;SDS011;44845;51.444;7.460;2023-04-07T09:32:06;10.35;;;7.97;;
59054;SDS011;44845;51.444;7.460;2023-04-07T09:34:32;9.98;;;7.82;;
59054;SDS011;44845;51.444;7.460;2023-04-07T09:36:59;10.13;;;7.80;;
59054;SDS011;44845;51.444;7.460;2023-04-07T09:39:25;11.18;;;8.02;;
59054;SDS011;44845;51.444;7.460;2023-04-07T09:41:51;9.32;;;7.47;;
59054;SDS011;44845;51.444;7.460;2023-04-07T09:44:20;10.75;;;7.47;;
59054;SDS011;44845;51.444;7.460;2023-04-07T09:46:47;8.73;;;6.82;;
59054;SDS011;44845;51.444;7.460;2023-04-07T09:49:23;8.45;;;7.10;;
59054;SDS011;44845;51.444;7.460;2023-04-07T09:51:53;7.78;;;6.30;;
59054;SDS011;44845;51.444;7.460;2023-04-07T09:54:38;8.30;;;6.47;;
59054;SDS011;44845;51.444;7.460;2023-04-07T09:57:06;8.77;;;6.78;;
59054;SDS011;44845;51.444;7.460;2023-04-07T09:59:34;8.52;;;6.72;;
59054;SDS011;44845;51.444;7.460;2023-04-07T10:02:01;7.63;;;6.55;;
59054;SDS011;44845;51.444;7.460;2023-04-07T10:04:27;7.63;;;6.43;;
59054;SDS011;44845;51.444;7.460;2023-04-07T10:06:56;8.63;;;6.13;;
59054;SDS011;44845;51.444;7.460;2023-04-07T10:09:23;7.22;;;6.22;;
59054;SDS011;44845;51.444;7.460;2023-04-07T10:11:51;6.78;;;6.07;;
59054;SDS011;44845;51.444;7.460;2023-04-07T10:14:17;6.72;;;5.93;;
59054;SDS011;44845;51.444;7.460;2023-04-07T10:16:45;7.47;;;5.95;;
59054;SDS011;44845;51.444;7.460;2023-04-07T10:19:11;6.70;;;6.00;;
59054;SDS011;44845;51.444;7.460;2023-04-07T10:21:38;5.35;;;4.55;;
59054;SDS011;44845;51.444;7.460;2023-04-07T10:24:28;7.05;;;5.13;;
59054;SDS011;44845;51.444;7.460;2023-04-07T10:27:11;4.75;;;4.32;;
59054;SDS011;44845;51.444;7.460;2023-04-07T10:29:41;5.03;;;4.53;;
59054;SDS011;44845;51.444;7.460;2023-04-07T10:32:09;4.25;;;3.75;;
59054;SDS011;44845;51.444;7.460;2023-04-07T10:37:13;4.72;;;4.32;;
59054;SDS011;44845;51.444;7.460;2023-04-07T10:39:41;4.88;;;4.38;;
59054;SDS011;44845;51.444;7.460;2023-04-07T10:42:33;4.50;;;4.10;;
59054;SDS011;44845;51.444;7.460;2023-04-07T10:45:05;5.57;;;4.93;;
59054;SDS011;44845;51.444;7.460;2023-04-07T10:47:32;6.05;;;4.95;;
59054;SDS011;44845;51.444;7.460;2023-04-07T10:50:17;6.63;;;5.18;;
59054;SDS011;44845;51.444;7.460;2023-04-07T10:52:45;6.15;;;5.47;;
59054;SDS011;44845;51.444;7.460;2023-04-07T10:55:27;7.20;;;5.57;;
59054;SDS011;44845;51.444;7.460;2023-04-07T10:58:12;6.93;;;5.35;;
59054;SDS011;44845;51.444;7.460;2023-04-07T11:00:38;6.78;;;6.07;;
59054;SDS011;44845;51.444;7.460;2023-04-07T11:03:10;6.43;;;5.75;;
59054;SDS011;44845;51.444;7.460;2023-04-07T11:05:40;6.72;;;6.03;;
59054;SDS011;44845;51.444;7.460;2023-04-07T11:08:06;6.75;;;5.88;;
59054;SDS011;44845;51.444;7.460;2023-04-07T11:10:32;8.48;;;7.07;;
59054;SDS011;44845;51.444;7.460;2023-04-07T11:13:04;7.30;;;5.97;;
59054;SDS011;44845;51.444;7.460;2023-04-07T11:15:31;6.82;;;6.20;;
59054;SDS011;44845;51.444;7.460;2023-04-07T11:18:15;9.07;;;7.32;;
59054;SDS011;44845;51.444;7.460;2023-04-07T11:20:44;8.57;;;6.70;;
59054;SDS011;44845;51.444;7.460;2023-04-07T11:23:18;8.13;;;7.28;;
59054;SDS011;44845;51.444;7.460;2023-04-07T11:25:46;7.95;;;7.05;;
59054;SDS011;44845;51.444;7.460;2023-04-07T11:28:13;9.07;;;8.18;;
59054;SDS011;44845;51.444;7.460;2023-04-07T11:30:50;9.27;;;8.00;;
59054;SDS011;44845;51.444;7.460;2023-04-07T11:33:21;10.80;;;8.80;;
59054;SDS011;44845;51.444;7.460;2023-04-07T11:35:49;10.55;;;8.77;;
59054;SDS011;44845;51.444;7.460;2023-04-07T11:38:17;12.77;;;8.85;;
59054;SDS011;44845;51.444;7.460;2023-04-07T11:40:43;16.23;;;10.40;;
59054;SDS011;44845;51.444;7.460;2023-04-07T11:43:15;24.15;;;14.27;;
59054;SDS011;44845;51.444;7.460;2023-04-07T11:45:45;25.92;;;15.98;;
59054;SDS011;44845;51.444;7.460;2023-04-07T11:48:26;25.45;;;15.85;;
59054;SDS011;44845;51.444;7.460;2023-04-07T11:50:53;26.65;;;16.63;;
59054;SDS011;44845;51.444;7.460;2023-04-07T11:53:25;22.48;;;14.93;;
59054;SDS011;44845;51.444;7.460;2023-04-07T11:56:04;22.42;;;15.38;;
59054;SDS011;44845;51.444;7.460;2023-04-07T11:58:36;21.38;;;14.27;;
59054;SDS011;44845;51.444;7.460;2023-04-07T12:01:03;17.90;;;11.85;;
59054;SDS011;44845;51.444;7.460;2023-04-07T12:03:33;15.43;;;11.65;;
59054;SDS011;44845;51.444;7.460;2023-04-07T12:05:59;16.73;;;11.82;;
59054;SDS011;44845;51.444;7.460;2023-04-07T12:08:36;14.60;;;8.85;;
59054;SDS011;44845;51.444;7.460;2023-04-07T12:11:05;13.20;;;9.60;;
59054;SDS011;44845;51.444;7.460;2023-04-07T12:13:32;12.02;;;9.43;;
59054;SDS011;44845;51.444;7.460;2023-04-07T12:15:58;11.88;;;9.27;;
59054;SDS011;44845;51.444;7.460;2023-04-07T12:18:23;9.57;;;8.55;;
59054;SDS011;44845;51.444;7.460;2023-04-07T12:20:49;10.10;;;8.60;;
59054;SDS011;44845;51.444;7.460;2023-04-07T12:23:14;10.35;;;9.10;;
59054;SDS011;44845;51.444;7.460;2023-04-07T12:25:40;8.70;;;7.80;;
59054;SDS011;44845;51.444;7.460;2023-04-07T12:28:05;9.05;;;8.05;;
59054;SDS011;44845;51.444;7.460;2023-04-07T12:30:31;10.70;;;8.48;;
59054;SDS011;44845;51.444;7.460;2023-04-07T12:32:57;12.52;;;10.45;;
59054;SDS011;44845;51.444;7.460;2023-04-07T12:35:22;6.75;;;6.05;;
59054;SDS011;44845;51.444;7.460;2023-04-07T12:37:48;8.05;;;6.63;;
59054;SDS011;44845;51.444;7.460;2023-04-07T12:40:13;6.72;;;6.03;;
59054;SDS011;44845;51.444;7.460;2023-04-07T12:42:40;6.88;;;6.13;;
59054;SDS011;44845;51.444;7.460;2023-04-07T12:45:06;6.90;;;5.80;;
59054;SDS011;44845;51.444;7.460;2023-04-07T12:47:31;5.78;;;5.18;;
59054;SDS011;44845;51.444;7.460;2023-04-07T12:49:57;5.68;;;5.00;;
59054;SDS011;44845;51.444;7.460;2023-04-07T12:52:23;7.70;;;5.63;;
59054;SDS011;44845;51.444;7.460;2023-04-07T12:54:48;5.28;;;4.78;;
59054;SDS011;44845;51.444;7.460;2023-04-07T12:57:14;4.85;;;4.45;;
59054;SDS011;44845;51.444;7.460;2023-04-07T12:59:40;3.38;;;3.08;;
59054;SDS011;44845;51.444;7.460;2023-04-07T13:02:05;3.58;;;3.28;;
59054;SDS011;44845;51.444;7.460;2023-04-07T13:04:31;3.83;;;3.10;;
59054;SDS011;44845;51.444;7.460;2023-04-07T13:06:57;3.13;;;2.80;;
59054;SDS011;44845;51.444;7.460;2023-04-07T13:09:23;2.80;;;2.60;;
59054;SDS011;44845;51.444;7.460;2023-04-07T13:11:49;3.17;;;2.83;;
59054;SDS011;44845;51.444;7.460;2023-04-07T13:14:14;2.72;;;2.40;;
59054;SDS011;44845;51.444;7.460;2023-04-07T13:16:40;4.05;;;2.50;;
59054;SDS011;44845;51.444;7.460;2023-04-07T13:19:05;3.08;;;2.75;;
59054;SDS011;44845;51.444;7.460;2023-04-07T13:21:33;2.72;;;2.20;;
59054;SDS011;44845;51.444;7.460;2023-04-07T13:23:58;3.95;;;2.25;;
59054;SDS011;44845;51.444;7.460;2023-04-07T13:26:23;2.45;;;2.25;;
59054;SDS011;44845;51.444;7.460;2023-04-07T13:28:49;2.40;;;2.20;;
59054;SDS011;44845;51.444;7.460;2023-04-07T13:31:17;2.30;;;2.10;;
59054;SDS011;44845;51.444;7.460;2023-04-07T13:33:42;1.90;;;1.80;;
59054;SDS011;44845;51.444;7.460;2023-04-07T13:36:07;1.60;;;1.50;;
59054;SDS011;44845;51.444;7.460;2023-04-07T13:38:33;1.92;;;1.70;;
59054;SDS011;44845;51.444;7.460;2023-04-07T13:40:58;2.05;;;1.85;;
59054;SDS011;44845;51.444;7.460;2023-04-07T13:43:23;2.20;;;2.00;;
59054;SDS011;44845;51.444;7.460;2023-04-07T13:45:49;2.40;;;2.20;;
59054;SDS011;44845;51.444;7.460;2023-04-07T13:48:14;1.88;;;1.77;;
59054;SDS011;44845;51.444;7.460;2023-04-07T13:50:40;1.90;;;1.77;;
59054;SDS011;44845;51.444;7.460;2023-04-07T13:53:05;1.67;;;1.58;;
59054;SDS011;44845;51.444;7.460;2023-04-07T13:55:30;2.22;;;1.80;;
59054;SDS011;44845;51.444;7.460;2023-04-07T13:57:56;3.15;;;1.38;;
59054;SDS011;44845;51.444;7.460;2023-04-07T14:00:21;3.38;;;1.85;;
59054;SDS011;44845;51.444;7.460;2023-04-07T14:02:47;1.70;;;1.60;;
59054;SDS011;44845;51.444;7.460;2023-04-07T14:05:13;1.80;;;1.70;;
59054;SDS011;44845;51.444;7.460;2023-04-07T14:07:38;1.65;;;1.55;;
59054;SDS011;44845;51.444;7.460;2023-04-07T14:10:04;1.90;;;1.80;;
59054;SDS011;44845;51.444;7.460;2023-04-07T14:12:29;2.40;;;2.20;;
59054;SDS011;44845;51.444;7.460;2023-04-07T14:14:55;3.10;;;2.50;;
59054;SDS011;44845;51.444;7.460;2023-04-07T14:17:21;2.65;;;2.30;;
59054;SDS011;44845;51.444;7.460;2023-04-07T14:19:46;2.63;;;2.20;;
59054;SDS011;44845;51.444;7.460;2023-04-07T14:22:12;1.90;;;1.80;;
59054;SDS011;44845;51.444;7.460;2023-04-07T14:24:38;1.90;;;1.80;;
59054;SDS011;44845;51.444;7.460;2023-04-07T14:27:03;2.55;;;2.00;;
59054;SDS011;44845;51.444;7.460;2023-04-07T14:29:29;2.70;;;2.08;;
59054;SDS011;44845;51.444;7.460;2023-04-07T14:31:54;2.58;;;2.38;;
59054;SDS011;44845;51.444;7.460;2023-04-07T14:34:20;2.15;;;2.05;;
59054;SDS011;44845;51.444;7.460;2023-04-07T14:36:52;1.77;;;1.67;;
59054;SDS011;44845;51.444;7.460;2023-04-07T14:39:19;2.20;;;2.10;;
59054;SDS011;44845;51.444;7.460;2023-04-07T14:41:45;3.17;;;2.00;;
59054;SDS011;44845;51.444;7.460;2023-04-07T14:44:11;2.00;;;1.90;;
59054;SDS011;44845;51.444;7.460;2023-04-07T14:46:37;1.95;;;1.85;;
59054;SDS011;44845;51.444;7.460;2023-04-07T14:49:03;1.95;;;1.85;;
59054;SDS011;44845;51.444;7.460;2023-04-07T14:51:28;1.77;;;1.67;;
59054;SDS011;44845;51.444;7.460;2023-04-07T14:53:54;2.03;;;1.65;;
59054;SDS011;44845;51.444;7.460;2023-04-07T14:56:21;1.70;;;1.60;;